createdAt,value
2023-02-11T00:01:11.147Z,40.88
2023-02-11T00:03:38.761Z,39.35
2023-02-11T00:06:10.129Z,40.50
2023-02-11T00:08:37.291Z,46.00
2023-02-11T00:11:04.350Z,45.47
2023-02-11T00:13:31.064Z,40.45
2023-02-11T00:15:57.840Z,40.95
2023-02-11T00:18:24.496Z,42.92
2023-02-11T00:20:51.171Z,41.53
2023-02-11T00:23:17.821Z,42.47
2023-02-11T00:25:45.499Z,44.55
2023-02-11T00:28:12.828Z,46.60
2023-02-11T00:30:39.773Z,42.83
2023-02-11T00:33:06.525Z,49.00
2023-02-11T00:35:33.223Z,42.13
2023-02-11T00:37:59.848Z,40.00
2023-02-11T00:40:26.587Z,47.00
2023-02-11T00:42:53.241Z,40.30
2023-02-11T00:45:21.146Z,39.85
2023-02-11T00:47:48.103Z,45.65
2023-02-11T00:50:14.813Z,43.10
2023-02-11T00:52:41.549Z,41.70
2023-02-11T00:55:08.368Z,46.33
2023-02-11T00:57:35.093Z,40.22
2023-02-11T01:00:01.797Z,44.40
2023-02-11T01:02:28.475Z,44.88
2023-02-11T01:04:55.257Z,49.60
2023-02-11T01:07:22.049Z,42.08
2023-02-11T01:09:48.671Z,43.90
2023-02-11T01:12:15.359Z,43.70
2023-02-11T01:14:42.024Z,42.58
2023-02-11T01:17:08.791Z,45.63
2023-02-11T01:19:37.285Z,47.90
2023-02-11T01:22:04.449Z,43.22
2023-02-11T01:24:31.090Z,47.75
2023-02-11T01:26:57.790Z,49.78
2023-02-11T01:29:25.363Z,43.30
2023-02-11T01:31:52.450Z,45.67
2023-02-11T01:34:19.096Z,46.88
2023-02-11T01:36:45.731Z,42.88
2023-02-11T01:39:12.400Z,41.28
2023-02-11T01:41:39.220Z,43.97
2023-02-11T01:44:31.924Z,48.35
2023-02-11T01:46:59.151Z,35.33
2023-02-11T01:49:37.942Z,45.20
2023-02-11T01:52:19.983Z,45.15
2023-02-11T01:55:09.673Z,42.42
2023-02-11T01:57:39.148Z,49.08
2023-02-11T02:00:24.100Z,38.67
2023-02-11T02:03:07.638Z,43.70
2023-02-11T02:05:59.679Z,41.80
2023-02-11T02:08:47.345Z,47.20
2023-02-11T02:11:14.040Z,44.03
2023-02-11T02:13:40.807Z,47.42
2023-02-11T02:16:16.124Z,44.05
2023-02-11T02:19:09.561Z,50.45
2023-02-11T02:21:57.318Z,47.03
2023-02-11T02:24:51.111Z,49.17
2023-02-11T02:28:00.955Z,48.47
2023-02-11T02:30:33.159Z,50.78
2023-02-11T02:33:32.198Z,45.28
2023-02-11T02:36:09.199Z,44.53
2023-02-11T02:38:44.913Z,47.90
2023-02-11T02:41:15.612Z,52.67
2023-02-11T02:43:49.165Z,51.53
2023-02-11T02:46:24.126Z,42.03
2023-02-11T02:48:55.027Z,53.08
2023-02-11T02:51:39.884Z,48.67
2023-02-11T02:54:48.436Z,47.85
2023-02-11T02:57:30.326Z,45.63
2023-02-11T03:00:28.333Z,48.80
2023-02-11T03:03:15.668Z,50.67
2023-02-11T03:05:56.041Z,46.60
2023-02-11T03:08:25.489Z,43.85
2023-02-11T03:10:54.222Z,51.65
2023-02-11T03:13:26.549Z,51.83
2023-02-11T03:15:57.142Z,55.65
2023-02-11T03:18:27.733Z,56.60
2023-02-11T03:20:55.062Z,47.65
2023-02-11T03:23:25.763Z,46.00
2023-02-11T03:26:13.602Z,47.90
2023-02-11T03:29:06.989Z,52.40
2023-02-11T03:31:51.737Z,50.58
2023-02-11T03:34:37.848Z,48.40
2023-02-11T03:37:17.778Z,49.25
2023-02-11T03:39:51.130Z,52.65
2023-02-11T03:42:19.284Z,49.13
2023-02-11T03:44:57.210Z,47.67
2023-02-11T03:47:27.867Z,56.75
2023-02-11T03:49:57.508Z,53.30
2023-02-11T03:52:25.863Z,49.05
2023-02-11T03:54:57.027Z,47.17
2023-02-11T03:57:23.977Z,47.40
2023-02-11T03:59:55.259Z,46.53
2023-02-11T04:02:27.221Z,45.35
2023-02-11T04:04:53.911Z,48.65
2023-02-11T04:07:20.875Z,47.28
2023-02-11T04:09:47.551Z,45.05
2023-02-11T04:12:14.294Z,45.15
2023-02-11T04:14:40.926Z,44.67
2023-02-11T04:17:07.613Z,48.13
2023-02-11T04:19:34.502Z,44.55
2023-02-11T04:22:01.422Z,43.13
2023-02-11T04:24:28.122Z,45.72
2023-02-11T04:26:54.879Z,39.77
2023-02-11T04:29:21.557Z,49.63
2023-02-11T04:31:48.681Z,50.03
2023-02-11T04:34:15.548Z,47.75
2023-02-11T04:36:42.577Z,48.53
2023-02-11T04:39:09.369Z,47.22
2023-02-11T04:41:36.122Z,48.00
2023-02-11T04:44:02.912Z,48.72
2023-02-11T04:46:29.671Z,45.08
2023-02-11T04:48:57.060Z,48.97
2023-02-11T04:51:23.970Z,48.58
2023-02-11T04:53:50.665Z,49.28
2023-02-11T04:56:17.325Z,46.83
2023-02-11T04:58:44.025Z,41.78
2023-02-11T05:01:13.072Z,46.17
2023-02-11T05:03:39.927Z,43.78
2023-02-11T05:06:06.997Z,46.67
2023-02-11T05:08:33.784Z,45.40
2023-02-11T05:11:02.090Z,46.35
2023-02-11T05:13:29.670Z,41.22
2023-02-11T05:15:56.468Z,50.97
2023-02-11T05:18:23.718Z,45.80
2023-02-11T05:20:50.361Z,44.47
2023-02-11T05:23:16.986Z,50.25
2023-02-11T05:25:43.661Z,39.53
2023-02-11T05:28:10.429Z,46.00
2023-02-11T05:30:37.103Z,46.60
2023-02-11T05:33:03.919Z,44.47
2023-02-11T05:35:30.581Z,39.60
2023-02-11T05:37:57.212Z,49.42
2023-02-11T05:40:23.876Z,47.83
2023-02-11T05:42:50.537Z,45.22
2023-02-11T05:45:17.255Z,45.58
2023-02-11T05:47:43.890Z,49.15
2023-02-11T05:50:10.536Z,43.22
2023-02-11T05:52:37.200Z,48.60
2023-02-11T05:55:04.388Z,45.95
2023-02-11T05:57:31.069Z,42.50
2023-02-11T05:59:57.676Z,45.78
2023-02-11T06:02:24.448Z,45.55
2023-02-11T06:04:51.167Z,45.45
2023-02-11T06:07:19.677Z,46.28
2023-02-11T06:09:46.329Z,45.33
2023-02-11T06:12:13.016Z,43.05
2023-02-11T06:14:39.646Z,44.58
2023-02-11T06:17:06.579Z,46.13
2023-02-11T06:19:33.370Z,43.15
2023-02-11T06:22:00.102Z,49.38
2023-02-11T06:24:48.127Z,45.10
2023-02-11T06:27:13.433Z,47.05
2023-02-11T06:29:40.122Z,43.13
2023-02-11T06:32:08.658Z,45.40
2023-02-11T06:34:38.552Z,40.67
2023-02-11T06:37:05.590Z,40.28
2023-02-11T06:39:32.789Z,42.45
2023-02-11T06:41:59.772Z,39.15
2023-02-11T06:44:26.486Z,44.60
2023-02-11T06:46:53.268Z,39.80
2023-02-11T06:49:19.950Z,52.75
2023-02-11T06:51:46.575Z,43.38
2023-02-11T06:54:13.287Z,43.25
2023-02-11T06:56:41.134Z,41.83
2023-02-11T06:59:07.808Z,44.97
2023-02-11T07:01:34.571Z,42.92
2023-02-11T07:04:01.213Z,48.38
2023-02-11T07:06:28.271Z,45.45
2023-02-11T07:08:55.663Z,49.30
2023-02-11T07:11:24.970Z,47.20
2023-02-11T07:13:53.067Z,46.10
2023-02-11T07:16:20.299Z,49.60
2023-02-11T07:18:48.305Z,50.25
2023-02-11T07:21:18.068Z,50.67
2023-02-11T07:23:45.125Z,42.55
2023-02-11T07:26:14.415Z,47.90
2023-02-11T07:28:41.712Z,52.03
2023-02-11T07:31:10.737Z,44.40
2023-02-11T07:33:38.293Z,42.40
2023-02-11T07:36:07.106Z,46.78
2023-02-11T07:38:34.845Z,43.47
2023-02-11T07:41:02.646Z,43.45
2023-02-11T07:43:30.697Z,42.30
2023-02-11T07:45:59.062Z,40.38
2023-02-11T07:48:25.798Z,46.65
2023-02-11T07:50:52.397Z,36.58
2023-02-11T07:53:19.078Z,43.30
2023-02-11T07:55:45.812Z,42.42
2023-02-11T07:58:12.744Z,45.65
2023-02-11T08:00:39.487Z,47.28
2023-02-11T08:03:08.290Z,43.08
2023-02-11T08:05:38.648Z,41.58
2023-02-11T08:08:05.281Z,40.40
2023-02-11T08:10:31.980Z,46.25
2023-02-11T08:12:58.681Z,44.05
2023-02-11T08:15:25.369Z,49.58
2023-02-11T08:17:52.025Z,40.75
2023-02-11T08:20:18.766Z,47.88
2023-02-11T08:22:45.451Z,42.58
2023-02-11T08:25:12.101Z,46.13
2023-02-11T08:27:38.822Z,51.40
2023-02-11T08:30:05.931Z,45.88
2023-02-11T08:32:35.173Z,39.03
2023-02-11T08:35:01.930Z,46.05
2023-02-11T08:37:28.910Z,49.65
2023-02-11T08:39:56.588Z,48.30
2023-02-11T08:42:23.207Z,46.60
2023-02-11T08:44:49.798Z,46.58
2023-02-11T08:47:16.539Z,46.53
2023-02-11T08:49:43.255Z,45.15
2023-02-11T08:52:10.388Z,38.80
2023-02-11T08:54:37.334Z,48.17
2023-02-11T08:57:04.646Z,47.85
2023-02-11T08:59:31.373Z,48.63
2023-02-11T09:01:58.323Z,43.13
2023-02-11T09:04:25.044Z,44.70
2023-02-11T09:06:51.790Z,41.35
2023-02-11T09:09:18.415Z,43.92
2023-02-11T09:11:45.551Z,46.92
2023-02-11T09:14:22.435Z,46.67
2023-02-11T09:16:49.435Z,43.00
2023-02-11T09:19:17.349Z,45.22
2023-02-11T09:21:44.614Z,42.38
2023-02-11T09:24:11.906Z,45.63
2023-02-11T09:26:42.335Z,42.45
2023-02-11T09:29:09.400Z,48.22
2023-02-11T09:31:36.251Z,42.45
2023-02-11T09:34:05.165Z,42.58
2023-02-11T09:36:37.360Z,42.17
2023-02-11T09:39:06.092Z,43.35
2023-02-11T09:41:49.282Z,43.60
2023-02-11T09:44:23.036Z,49.03
2023-02-11T09:46:57.711Z,41.60
2023-02-11T09:49:46.897Z,40.78
2023-02-11T09:52:38.366Z,42.60
2023-02-11T09:55:21.656Z,51.80
2023-02-11T09:57:48.740Z,44.70
2023-02-11T10:00:34.033Z,43.47
2023-02-11T10:03:25.359Z,44.17
2023-02-11T10:06:16.770Z,39.63
2023-02-11T10:09:08.302Z,39.92
2023-02-11T10:11:56.116Z,41.03
2023-02-11T10:14:55.924Z,37.95
2023-02-11T10:17:35.085Z,44.55
2023-02-11T10:20:21.974Z,39.55
2023-02-11T10:23:21.048Z,35.42
2023-02-11T10:25:54.455Z,34.97
2023-02-11T10:28:24.920Z,38.92
2023-02-11T10:30:59.599Z,42.50
2023-02-11T10:33:37.396Z,43.03
2023-02-11T10:36:05.005Z,38.78
2023-02-11T10:38:33.761Z,38.50
2023-02-11T10:41:00.462Z,43.78
2023-02-11T10:43:30.697Z,43.17
2023-02-11T10:46:02.732Z,43.15
2023-02-11T10:48:43.488Z,43.88
2023-02-11T10:51:14.614Z,40.42
2023-02-11T10:53:41.511Z,40.17
2023-02-11T10:56:11.443Z,40.05
2023-02-11T10:58:55.559Z,39.25
2023-02-11T11:01:24.725Z,41.58
2023-02-11T11:03:52.867Z,41.90
2023-02-11T11:06:31.680Z,42.08
2023-02-11T11:08:58.720Z,36.38
2023-02-11T11:11:26.498Z,44.95
2023-02-11T11:13:53.160Z,37.85
2023-02-11T11:16:21.957Z,42.58
2023-02-11T11:18:51.628Z,42.45
2023-02-11T11:21:22.979Z,40.17
2023-02-11T11:23:53.667Z,45.60
2023-02-11T11:26:21.369Z,42.72
2023-02-11T11:28:56.305Z,40.80
2023-02-11T11:31:33.408Z,40.95
2023-02-11T11:34:03.554Z,45.97
2023-02-11T11:36:39.569Z,44.20
2023-02-11T11:39:46.408Z,41.70
2023-02-11T11:42:33.442Z,39.97
2023-02-11T11:45:24.700Z,36.42
2023-02-11T11:47:59.926Z,40.42
2023-02-11T11:50:30.963Z,45.40
2023-02-11T11:53:22.390Z,40.80
2023-02-11T11:56:03.563Z,43.42
2023-02-11T11:58:31.596Z,44.00
2023-02-11T12:01:24.946Z,38.30
2023-02-11T12:04:24.621Z,38.65
2023-02-11T12:07:12.047Z,35.78
2023-02-11T12:09:55.401Z,40.03
2023-02-11T12:12:46.730Z,40.70
2023-02-11T12:15:41.097Z,36.65
2023-02-11T12:18:07.668Z,35.08
2023-02-11T12:21:03.346Z,42.35
2023-02-11T12:23:48.430Z,40.85
2023-02-11T12:26:18.310Z,38.05
2023-02-11T12:29:23.216Z,40.63
2023-02-11T12:32:07.050Z,37.70
2023-02-11T12:34:55.701Z,36.58
2023-02-11T12:38:00.047Z,34.92
2023-02-11T12:40:46.273Z,38.63
2023-02-11T12:43:23.963Z,36.58
2023-02-11T12:46:21.677Z,40.42
2023-02-11T12:49:10.157Z,35.83
2023-02-11T12:51:42.753Z,37.28
2023-02-11T12:57:25.532Z,39.85
2023-02-11T13:00:22.928Z,37.80
2023-02-11T13:03:11.305Z,35.60
2023-02-11T13:05:49.518Z,34.88
2023-02-11T13:08:36.128Z,36.08
2023-02-11T13:11:08.308Z,42.58
2023-02-11T13:13:55.064Z,35.72
2023-02-11T13:16:24.917Z,39.53
2023-02-11T13:19:01.127Z,38.60
2023-02-11T13:21:54.728Z,33.95
2023-02-11T13:24:59.745Z,36.25
2023-02-11T13:28:01.293Z,33.08
2023-02-11T13:30:32.958Z,34.17
2023-02-11T13:33:00.877Z,36.55
2023-02-11T13:35:32.398Z,36.75
2023-02-11T13:38:21.437Z,36.55
2023-02-11T13:41:21.008Z,39.42
2023-02-11T13:43:59.993Z,38.78
2023-02-11T13:48:56.677Z,33.15
2023-02-11T13:51:42.272Z,34.50
2023-02-11T13:54:22.305Z,33.70
2023-02-11T13:57:20.838Z,35.67
2023-02-11T13:59:53.086Z,29.45
2023-02-11T14:02:41.861Z,29.70
2023-02-11T14:05:26.953Z,32.20
2023-02-11T14:08:30.573Z,34.33
2023-02-11T14:11:08.561Z,36.38
2023-02-11T14:14:03.020Z,32.80
2023-02-11T14:16:37.835Z,34.65
2023-02-11T14:19:06.138Z,33.80
2023-02-11T14:21:40.294Z,34.15
2023-02-11T14:24:10.796Z,36.92
2023-02-11T14:27:09.793Z,33.92
2023-02-11T14:30:08.478Z,33.40
2023-02-11T14:33:12.386Z,34.35
2023-02-11T14:36:08.689Z,30.13
2023-02-11T14:39:14.581Z,33.78
2023-02-11T14:41:44.052Z,32.85
2023-02-11T14:44:21.290Z,34.40
2023-02-11T14:46:50.740Z,28.95
2023-02-11T14:49:37.738Z,34.25
2023-02-11T14:52:26.531Z,31.25
2023-02-11T14:55:14.815Z,34.38
2023-02-11T14:57:44.412Z,29.55
2023-02-11T15:00:18.755Z,36.05
2023-02-11T15:02:45.577Z,38.35
2023-02-11T15:05:19.899Z,39.95
2023-02-11T15:07:49.538Z,44.08
2023-02-11T15:10:20.939Z,36.90
2023-02-11T15:12:49.158Z,38.83
2023-02-11T15:15:16.596Z,38.55
2023-02-11T15:17:54.249Z,36.53
2023-02-11T15:20:28.257Z,32.47
2023-02-11T15:23:04.889Z,31.35
2023-02-11T15:25:34.055Z,38.72
2023-02-11T15:28:01.059Z,35.05
2023-02-11T15:30:32.200Z,35.88
2023-02-11T15:33:02.850Z,33.00
2023-02-11T15:35:36.580Z,34.42
2023-02-11T15:38:04.264Z,36.85
2023-02-11T15:40:33.508Z,35.28
2023-02-11T15:43:00.244Z,31.55
2023-02-11T15:45:33.844Z,35.88
2023-02-11T15:48:14.585Z,32.63
2023-02-11T15:50:43.006Z,30.60
2023-02-11T15:53:21.962Z,35.20
2023-02-11T15:55:51.572Z,32.00
2023-02-11T15:58:18.680Z,32.80
2023-02-11T16:00:48.624Z,32.33
2023-02-11T16:03:24.792Z,32.42
2023-02-11T16:05:51.962Z,32.85
2023-02-11T16:08:29.292Z,32.78
2023-02-11T16:11:03.209Z,36.33
2023-02-11T16:13:33.636Z,36.67
2023-02-11T16:16:04.628Z,33.80
2023-02-11T16:18:40.442Z,32.80
2023-02-11T16:21:15.931Z,29.65
2023-02-11T16:23:49.040Z,29.13
2023-02-11T16:26:35.945Z,28.67
2023-02-11T16:29:15.313Z,31.17
2023-02-11T16:31:45.202Z,29.48
2023-02-11T16:34:20.541Z,25.15
2023-02-11T16:36:47.965Z,24.13
2023-02-11T16:39:16.762Z,25.85
2023-02-11T16:41:43.522Z,31.25
2023-02-11T16:44:10.210Z,24.20
2023-02-11T16:46:37.287Z,29.02
2023-02-11T16:49:28.448Z,28.27
2023-02-11T16:51:58.517Z,25.73
2023-02-11T16:54:25.273Z,25.23
2023-02-11T16:56:51.895Z,25.95
2023-02-11T16:59:18.638Z,24.83
2023-02-11T17:01:46.652Z,29.65
2023-02-11T17:04:24.407Z,29.95
2023-02-11T17:06:51.289Z,19.58
2023-02-11T17:09:27.755Z,23.27
2023-02-11T17:11:55.638Z,25.67
2023-02-11T17:14:22.269Z,22.52
2023-02-11T17:16:49.040Z,22.60
2023-02-11T17:19:17.638Z,23.50
2023-02-11T17:21:45.920Z,24.05
2023-02-11T17:24:14.975Z,26.45
2023-02-11T17:26:44.129Z,24.95
2023-02-11T17:29:17.247Z,25.25
2023-02-11T17:31:44.136Z,20.50
2023-02-11T17:34:11.203Z,28.17
2023-02-11T17:36:37.939Z,26.25
2023-02-11T17:39:08.114Z,27.35
2023-02-11T17:41:37.474Z,22.45
2023-02-11T17:44:04.905Z,24.70
2023-02-11T17:46:32.276Z,24.73
2023-02-11T17:48:59.510Z,25.38
2023-02-11T17:51:28.724Z,24.60
2023-02-11T17:53:58.073Z,27.73
2023-02-11T17:56:25.092Z,25.67
2023-02-11T17:58:52.983Z,21.15
2023-02-11T18:01:20.052Z,26.00
2023-02-11T18:03:46.821Z,30.92
2023-02-11T18:06:13.498Z,23.95
2023-02-11T18:08:41.766Z,27.52
2023-02-11T18:11:13.448Z,26.30
2023-02-11T18:13:40.154Z,24.92
2023-02-11T18:16:15.734Z,25.60
2023-02-11T18:18:43.648Z,26.05
2023-02-11T18:21:18.326Z,27.95
2023-02-11T18:23:46.052Z,29.92
2023-02-11T18:26:13.870Z,27.33
2023-02-11T18:28:43.215Z,24.73
2023-02-11T18:31:11.923Z,22.27
2023-02-11T18:33:39.753Z,25.05
2023-02-11T18:36:08.937Z,28.63
2023-02-11T18:38:36.156Z,28.52
2023-02-11T18:41:03.270Z,23.83
2023-02-11T18:43:31.712Z,22.92
2023-02-11T18:45:58.480Z,27.17
2023-02-11T18:48:28.543Z,28.33
2023-02-11T18:50:55.707Z,22.70
2023-02-11T18:53:24.441Z,27.15
2023-02-11T18:55:52.563Z,23.95
2023-02-11T18:58:21.153Z,26.90
2023-02-11T19:00:48.471Z,28.42
2023-02-11T19:03:15.267Z,29.45
2023-02-11T19:05:47.607Z,25.38
2023-02-11T19:08:15.362Z,22.83
2023-02-11T19:10:46.977Z,26.08
2023-02-11T19:13:14.524Z,26.92
2023-02-11T19:15:45.614Z,29.15
2023-02-11T19:18:14.582Z,25.33
2023-02-11T19:20:43.058Z,29.02
2023-02-11T19:23:10.314Z,25.27
2023-02-11T19:25:37.662Z,22.95
2023-02-11T19:28:05.058Z,31.05
2023-02-11T19:30:31.719Z,30.25
2023-02-11T19:32:58.455Z,31.98
2023-02-11T19:35:25.690Z,25.13
2023-02-11T19:37:52.766Z,24.80
2023-02-11T19:40:21.191Z,27.20
2023-02-11T19:42:48.227Z,26.08
2023-02-11T19:45:15.089Z,28.35
2023-02-11T19:47:41.811Z,26.60
2023-02-11T19:50:08.968Z,26.30
2023-02-11T19:52:38.543Z,27.33
2023-02-11T19:55:05.629Z,26.13
2023-02-11T19:57:32.286Z,28.52
2023-02-11T19:59:59.492Z,26.15
2023-02-11T20:02:26.230Z,29.42
2023-02-11T20:04:52.997Z,31.08
2023-02-11T20:07:19.697Z,30.98
2023-02-11T20:09:46.326Z,30.15
2023-02-11T20:12:13.046Z,27.25
2023-02-11T20:14:39.737Z,35.90
2023-02-11T20:17:06.436Z,32.10
2023-02-11T20:19:33.257Z,29.90
2023-02-11T20:22:00.032Z,26.90
2023-02-11T20:24:26.913Z,29.20
2023-02-11T20:26:56.897Z,30.08
2023-02-11T20:29:25.906Z,31.45
2023-02-11T20:31:52.949Z,24.77
2023-02-11T20:34:21.045Z,28.17
2023-02-11T20:36:56.426Z,30.30
2023-02-11T20:39:24.645Z,33.05
2023-02-11T20:41:53.236Z,31.67
2023-02-11T20:44:22.195Z,32.42
2023-02-11T20:46:49.701Z,32.22
2023-02-11T20:49:19.366Z,39.30
2023-02-11T20:51:46.315Z,31.27
2023-02-11T20:54:14.898Z,37.67
2023-02-11T20:56:42.211Z,33.10
2023-02-11T20:59:09.580Z,32.50
2023-02-11T21:01:40.656Z,32.38
2023-02-11T21:04:13.545Z,31.33
2023-02-11T21:06:43.823Z,37.63
2023-02-11T21:09:17.375Z,35.75
2023-02-11T21:11:44.129Z,29.95
2023-02-11T21:14:12.038Z,35.13
2023-02-11T21:16:39.148Z,31.20
2023-02-11T21:19:06.632Z,34.40
2023-02-11T21:21:35.964Z,37.35
2023-02-11T21:24:02.765Z,33.72
2023-02-11T21:26:29.479Z,41.97
2023-02-11T21:28:56.305Z,38.90
2023-02-11T21:31:25.965Z,39.25
2023-02-11T21:33:55.063Z,33.13
2023-02-11T21:36:22.801Z,42.00
2023-02-11T21:38:50.050Z,39.35
2023-02-11T21:41:18.408Z,39.00
2023-02-11T21:43:45.224Z,43.63
2023-02-11T21:46:14.883Z,41.63
2023-02-11T21:48:42.111Z,48.08
2023-02-11T21:51:14.616Z,38.28
2023-02-11T21:53:41.286Z,40.42
2023-02-11T21:56:18.761Z,39.88
2023-02-11T21:58:46.323Z,38.00
2023-02-11T22:01:25.848Z,38.03
2023-02-11T22:03:53.154Z,39.35
2023-02-11T22:06:31.012Z,42.40
2023-02-11T22:08:58.526Z,33.63
2023-02-11T22:11:25.293Z,34.50
2023-02-11T22:13:56.373Z,38.25
2023-02-11T22:16:24.411Z,39.58
2023-02-11T22:18:51.505Z,40.80
2023-02-11T22:21:21.912Z,37.30
2023-02-11T22:23:49.100Z,36.75
2023-02-11T22:26:21.193Z,41.45
2023-02-11T22:28:48.423Z,36.72
2023-02-11T22:31:17.916Z,37.00
2023-02-11T22:33:45.685Z,39.40
2023-02-11T22:36:23.735Z,40.08
2023-02-11T22:38:50.983Z,36.10
2023-02-11T22:41:18.041Z,40.80
2023-02-11T22:43:45.234Z,38.53
2023-02-11T22:46:14.707Z,42.88
2023-02-11T22:48:41.458Z,38.60
2023-02-11T22:51:10.516Z,42.70
2023-02-11T22:53:37.439Z,39.83
2023-02-11T22:56:15.029Z,39.35
2023-02-11T22:58:42.088Z,44.70
2023-02-11T23:01:08.820Z,39.40
2023-02-11T23:03:35.709Z,44.90
2023-02-11T23:06:02.858Z,39.20
2023-02-11T23:08:30.354Z,37.28
2023-02-11T23:10:57.241Z,42.42
2023-02-11T23:13:23.952Z,39.78
2023-02-11T23:15:50.635Z,41.45
2023-02-11T23:18:17.366Z,36.85
2023-02-11T23:20:44.937Z,36.90
2023-02-11T23:23:12.209Z,34.38
2023-02-11T23:25:43.724Z,36.72
2023-02-11T23:28:11.684Z,30.60
2023-02-11T23:30:39.561Z,33.15
2023-02-11T23:33:06.323Z,36.20
2023-02-11T23:35:33.129Z,42.72
2023-02-11T23:37:59.835Z,33.28
2023-02-11T23:40:26.579Z,39.38
2023-02-11T23:42:53.377Z,34.63
2023-02-11T23:45:20.169Z,31.70
2023-02-11T23:47:47.603Z,31.17
2023-02-11T23:50:14.481Z,34.17
2023-02-11T23:52:41.418Z,33.90
2023-02-11T23:55:11.366Z,34.95
2023-02-11T23:57:38.490Z,34.78
